메인 페이지
METAR-TAF:

METAR-TAF

공항 :

야운데, 카메룬

위도: 03-50N, 경도: 011-31E, 고도: 751m

현재 날씨관측

예보는 38분 전, 22:00시(UTC)에 발표되었습니다.
온도 21°C
습도 94%
기압 1020 hPa
시정: 8000m
고도 600ft 상공 구름 많음

METAR: FKYS 182200Z /////KT 8000 BKN006 21/20 Q1020 NOSIG

시각: 23:38 (22:38 UTC)

예보

예보는 5 시간 38분 전, 17:00시(UTC)에 발표되었습니다.
예보 대상 시간: 18일 18시부터 19일 18시까지 (UTC)
여러 방향의 바람 5kt
시정: 8000m
고도 1600ft 상공 구름 많음
일시적
18일 18시부터 19일 03시까지 (UTC)
고도 1300ft 상공 구름 많음
고도 2000ft 상공 구름 조금, 적란운.
뇌우
확률 30% :
일시적
18일 18시부터 19일 01시까지 (UTC)
시정: 4000m
뇌우, 비
전환 중
18일 21시부터 18일 23시까지 (UTC)
고도 600ft 상공 구름 많음
전환 중
19일 08시부터 19일 10시까지 (UTC)
고도 1600ft 상공 구름 많음

TAF: FKYS 181700Z 1818/1918 VRB05KT 8000 BKN016 TEMPO 1818/1903 TS BKN013 FEW020CB PROB30 TEMPO 1818/1901 4000 TSRA BECMG 1821/1823 BKN006 BECMG 1908/1910 BKN016

4,000개 이상의 공항 관측 자료 및 예보 (METAR 및 TAF 보고).

지도상에서 검색 가능한 기상관측소가 노란 점과 빨간 점으로 표시되어 있습니다.

기상관측소 명을 보려면 표시 위로 마우스를 이동하세요.

날씨 관측과 예보를 보려면 클릭하세요.

지도 변경 : 확대하려면 엑스 표시가 있는 녹색 버튼, 축소하려면 빼기 표시가 있는 녹색 버튼, 다음 페이지의 지도를 보려면 녹색 화살표를 클릭하세요.


METAR-TAF: